sensor_id;sensor_type;location;lat;lon;timestamp;temperature;humidity
13848;DHT22;6994;49.752;6.094;2023-08-07T00:00:42;12.20;99.90
13848;DHT22;6994;49.752;6.094;2023-08-07T00:03:10;12.00;99.90
13848;DHT22;6994;49.752;6.094;2023-08-07T00:05:38;11.90;99.90
13848;DHT22;6994;49.752;6.094;2023-08-07T00:08:06;11.90;99.90
13848;DHT22;6994;49.752;6.094;2023-08-07T00:10:34;11.90;99.90
13848;DHT22;6994;49.752;6.094;2023-08-07T00:13:01;11.80;99.90
13848;DHT22;6994;49.752;6.094;2023-08-07T00:15:29;11.80;99.90
13848;DHT22;6994;49.752;6.094;2023-08-07T00:17:57;11.80;99.90
13848;DHT22;6994;49.752;6.094;2023-08-07T00:20:24;11.80;99.90
13848;DHT22;6994;49.752;6.094;2023-08-07T00:22:51;11.80;99.90
13848;DHT22;6994;49.752;6.094;2023-08-07T00:25:18;11.80;99.90
13848;DHT22;6994;49.752;6.094;2023-08-07T00:27:46;11.80;99.90
13848;DHT22;6994;49.752;6.094;2023-08-07T00:30:13;11.80;99.90
13848;DHT22;6994;49.752;6.094;2023-08-07T00:32:40;12.00;99.90
13848;DHT22;6994;49.752;6.094;2023-08-07T00:35:07;12.10;99.90
13848;DHT22;6994;49.752;6.094;2023-08-07T00:37:37;12.10;99.90
13848;DHT22;6994;49.752;6.094;2023-08-07T00:40:05;12.10;99.90
13848;DHT22;6994;49.752;6.094;2023-08-07T00:42:32;12.20;99.90
13848;DHT22;6994;49.752;6.094;2023-08-07T00:44:59;12.40;99.90
13848;DHT22;6994;49.752;6.094;2023-08-07T00:47:26;12.40;99.90
13848;DHT22;6994;49.752;6.094;2023-08-07T00:49:55;12.30;99.90
13848;DHT22;6994;49.752;6.094;2023-08-07T00:52:22;12.20;99.90
13848;DHT22;6994;49.752;6.094;2023-08-07T00:54:49;12.20;99.90
13848;DHT22;6994;49.752;6.094;2023-08-07T00:57:17;12.10;99.90
13848;DHT22;6994;49.752;6.094;2023-08-07T00:59:44;12.00;99.90
13848;DHT22;6994;49.752;6.094;2023-08-07T01:02:11;12.00;99.90
13848;DHT22;6994;49.752;6.094;2023-08-07T01:04:38;11.90;99.90
13848;DHT22;6994;49.752;6.094;2023-08-07T01:07:05;11.90;99.90
13848;DHT22;6994;49.752;6.094;2023-08-07T01:09:33;11.90;99.90
13848;DHT22;6994;49.752;6.094;2023-08-07T01:12:19;11.80;99.90
13848;DHT22;6994;49.752;6.094;2023-08-07T01:14:49;11.80;99.90
13848;DHT22;6994;49.752;6.094;2023-08-07T01:17:15;11.80;99.90
13848;DHT22;6994;49.752;6.094;2023-08-07T01:19:42;12.00;99.90
13848;DHT22;6994;49.752;6.094;2023-08-07T01:22:12;12.00;99.90
13848;DHT22;6994;49.752;6.094;2023-08-07T01:24:40;12.00;99.90
13848;DHT22;6994;49.752;6.094;2023-08-07T01:30:08;12.10;99.90
13848;DHT22;6994;49.752;6.094;2023-08-07T01:35:18;12.00;99.90
13848;DHT22;6994;49.752;6.094;2023-08-07T01:37:45;12.10;99.90
13848;DHT22;6994;49.752;6.094;2023-08-07T01:40:12;12.00;99.90
13848;DHT22;6994;49.752;6.094;2023-08-07T01:42:39;12.00;99.90
13848;DHT22;6994;49.752;6.094;2023-08-07T01:45:06;11.90;99.90
13848;DHT22;6994;49.752;6.094;2023-08-07T01:47:34;11.90;99.90
13848;DHT22;6994;49.752;6.094;2023-08-07T01:50:01;11.80;99.90
13848;DHT22;6994;49.752;6.094;2023-08-07T01:52:28;11.80;99.90
13848;DHT22;6994;49.752;6.094;2023-08-07T01:54:55;11.80;99.90
13848;DHT22;6994;49.752;6.094;2023-08-07T01:57:22;11.70;99.90
13848;DHT22;6994;49.752;6.094;2023-08-07T01:59:50;11.90;99.90
13848;DHT22;6994;49.752;6.094;2023-08-07T02:02:17;11.90;99.90
13848;DHT22;6994;49.752;6.094;2023-08-07T02:04:44;11.90;99.90
13848;DHT22;6994;49.752;6.094;2023-08-07T02:07:11;11.80;99.90
13848;DHT22;6994;49.752;6.094;2023-08-07T02:09:38;11.80;99.90
13848;DHT22;6994;49.752;6.094;2023-08-07T02:12:06;11.70;99.90
13848;DHT22;6994;49.752;6.094;2023-08-07T02:14:33;11.70;99.90
13848;DHT22;6994;49.752;6.094;2023-08-07T02:17:00;11.70;99.90
13848;DHT22;6994;49.752;6.094;2023-08-07T02:19:27;11.60;99.90
13848;DHT22;6994;49.752;6.094;2023-08-07T02:21:55;11.60;99.90
13848;DHT22;6994;49.752;6.094;2023-08-07T02:24:22;11.60;99.90
13848;DHT22;6994;49.752;6.094;2023-08-07T02:26:49;11.60;99.90
13848;DHT22;6994;49.752;6.094;2023-08-07T02:29:16;11.70;99.90
13848;DHT22;6994;49.752;6.094;2023-08-07T02:31:43;11.80;99.90
13848;DHT22;6994;49.752;6.094;2023-08-07T02:34:11;11.80;99.90
13848;DHT22;6994;49.752;6.094;2023-08-07T02:36:38;11.80;99.90
13848;DHT22;6994;49.752;6.094;2023-08-07T02:39:05;11.90;99.90
13848;DHT22;6994;49.752;6.094;2023-08-07T02:41:32;12.00;99.90
13848;DHT22;6994;49.752;6.094;2023-08-07T02:43:59;11.90;99.90
13848;DHT22;6994;49.752;6.094;2023-08-07T02:46:27;11.90;99.90
13848;DHT22;6994;49.752;6.094;2023-08-07T02:48:55;11.80;99.90
13848;DHT22;6994;49.752;6.094;2023-08-07T02:51:22;11.80;99.90
13848;DHT22;6994;49.752;6.094;2023-08-07T02:53:50;11.70;99.90
13848;DHT22;6994;49.752;6.094;2023-08-07T02:56:17;11.70;99.90
13848;DHT22;6994;49.752;6.094;2023-08-07T02:58:45;11.70;99.90
13848;DHT22;6994;49.752;6.094;2023-08-07T03:01:12;11.70;99.90
13848;DHT22;6994;49.752;6.094;2023-08-07T03:03:39;11.70;99.90
13848;DHT22;6994;49.752;6.094;2023-08-07T03:06:06;11.70;99.90
13848;DHT22;6994;49.752;6.094;2023-08-07T03:08:34;11.70;99.90
13848;DHT22;6994;49.752;6.094;2023-08-07T03:11:01;11.80;99.90
13848;DHT22;6994;49.752;6.094;2023-08-07T03:13:28;11.90;99.90
13848;DHT22;6994;49.752;6.094;2023-08-07T03:15:59;11.90;99.90
13848;DHT22;6994;49.752;6.094;2023-08-07T03:18:25;11.90;99.90
13848;DHT22;6994;49.752;6.094;2023-08-07T03:20:53;11.80;99.90
13848;DHT22;6994;49.752;6.094;2023-08-07T03:23:20;11.80;99.90
13848;DHT22;6994;49.752;6.094;2023-08-07T03:25:47;11.80;99.90
13848;DHT22;6994;49.752;6.094;2023-08-07T03:28:14;11.70;99.90
13848;DHT22;6994;49.752;6.094;2023-08-07T03:30:41;11.70;99.90
13848;DHT22;6994;49.752;6.094;2023-08-07T03:33:09;11.70;99.90
13848;DHT22;6994;49.752;6.094;2023-08-07T03:35:36;11.70;99.90
13848;DHT22;6994;49.752;6.094;2023-08-07T03:38:03;11.70;99.90
13848;DHT22;6994;49.752;6.094;2023-08-07T03:40:30;11.70;99.90
13848;DHT22;6994;49.752;6.094;2023-08-07T03:42:57;11.70;99.90
13848;DHT22;6994;49.752;6.094;2023-08-07T03:45:25;11.80;99.90
13848;DHT22;6994;49.752;6.094;2023-08-07T03:47:53;11.70;99.90
13848;DHT22;6994;49.752;6.094;2023-08-07T03:50:20;12.00;99.90
13848;DHT22;6994;49.752;6.094;2023-08-07T03:52:47;12.00;99.90
13848;DHT22;6994;49.752;6.094;2023-08-07T03:55:14;12.20;99.90
13848;DHT22;6994;49.752;6.094;2023-08-07T03:57:41;12.30;99.90
13848;DHT22;6994;49.752;6.094;2023-08-07T04:00:09;12.40;99.90
13848;DHT22;6994;49.752;6.094;2023-08-07T04:02:36;12.40;99.90
13848;DHT22;6994;49.752;6.094;2023-08-07T04:05:03;12.30;99.90
13848;DHT22;6994;49.752;6.094;2023-08-07T04:07:30;12.30;99.90
13848;DHT22;6994;49.752;6.094;2023-08-07T04:09:57;12.20;99.90
13848;DHT22;6994;49.752;6.094;2023-08-07T04:12:25;12.20;99.90
13848;DHT22;6994;49.752;6.094;2023-08-07T04:14:52;12.10;99.90
13848;DHT22;6994;49.752;6.094;2023-08-07T04:17:19;12.30;99.90
13848;DHT22;6994;49.752;6.094;2023-08-07T04:19:46;12.30;99.90
13848;DHT22;6994;49.752;6.094;2023-08-07T04:22:13;12.50;99.90
13848;DHT22;6994;49.752;6.094;2023-08-07T04:24:41;12.50;99.90
13848;DHT22;6994;49.752;6.094;2023-08-07T04:27:08;12.40;99.90
13848;DHT22;6994;49.752;6.094;2023-08-07T04:29:35;12.30;99.90
13848;DHT22;6994;49.752;6.094;2023-08-07T04:32:02;12.30;99.90
13848;DHT22;6994;49.752;6.094;2023-08-07T04:34:29;12.20;99.90
13848;DHT22;6994;49.752;6.094;2023-08-07T04:36:57;12.10;99.90
13848;DHT22;6994;49.752;6.094;2023-08-07T04:39:25;12.00;99.90
13848;DHT22;6994;49.752;6.094;2023-08-07T04:41:53;12.00;99.90
13848;DHT22;6994;49.752;6.094;2023-08-07T04:44:21;12.00;99.90
13848;DHT22;6994;49.752;6.094;2023-08-07T04:46:49;11.90;99.90
13848;DHT22;6994;49.752;6.094;2023-08-07T04:49:16;11.90;99.90
13848;DHT22;6994;49.752;6.094;2023-08-07T04:51:43;11.90;99.90
13848;DHT22;6994;49.752;6.094;2023-08-07T04:54:10;12.00;99.90
13848;DHT22;6994;49.752;6.094;2023-08-07T04:56:37;12.10;99.90
13848;DHT22;6994;49.752;6.094;2023-08-07T04:59:05;12.30;99.90
13848;DHT22;6994;49.752;6.094;2023-08-07T05:01:32;12.30;99.90
13848;DHT22;6994;49.752;6.094;2023-08-07T05:03:59;12.20;99.90
13848;DHT22;6994;49.752;6.094;2023-08-07T05:06:26;12.20;99.90
13848;DHT22;6994;49.752;6.094;2023-08-07T05:08:54;12.10;99.90
13848;DHT22;6994;49.752;6.094;2023-08-07T05:11:21;12.10;99.90
13848;DHT22;6994;49.752;6.094;2023-08-07T05:13:49;12.10;99.90
13848;DHT22;6994;49.752;6.094;2023-08-07T05:16:16;12.00;99.90
13848;DHT22;6994;49.752;6.094;2023-08-07T05:18:44;12.00;99.90
13848;DHT22;6994;49.752;6.094;2023-08-07T05:21:11;12.00;99.90
13848;DHT22;6994;49.752;6.094;2023-08-07T05:23:38;12.00;99.90
13848;DHT22;6994;49.752;6.094;2023-08-07T05:26:05;12.10;99.90
13848;DHT22;6994;49.752;6.094;2023-08-07T05:28:33;12.10;99.90
13848;DHT22;6994;49.752;6.094;2023-08-07T05:31:00;12.10;99.90
13848;DHT22;6994;49.752;6.094;2023-08-07T05:33:27;12.20;99.90
13848;DHT22;6994;49.752;6.094;2023-08-07T05:35:54;12.40;99.90
13848;DHT22;6994;49.752;6.094;2023-08-07T05:38:21;12.50;99.90
13848;DHT22;6994;49.752;6.094;2023-08-07T05:40:49;12.50;99.90
13848;DHT22;6994;49.752;6.094;2023-08-07T05:43:16;12.50;99.90
13848;DHT22;6994;49.752;6.094;2023-08-07T05:45:44;12.60;99.90
13848;DHT22;6994;49.752;6.094;2023-08-07T05:48:11;12.60;99.90
13848;DHT22;6994;49.752;6.094;2023-08-07T05:50:38;12.60;99.90
13848;DHT22;6994;49.752;6.094;2023-08-07T05:53:06;12.60;99.90
13848;DHT22;6994;49.752;6.094;2023-08-07T05:55:34;12.60;99.90
13848;DHT22;6994;49.752;6.094;2023-08-07T05:58:02;12.60;99.90
13848;DHT22;6994;49.752;6.094;2023-08-07T06:00:30;12.70;99.90
13848;DHT22;6994;49.752;6.094;2023-08-07T06:02:57;12.70;99.90
13848;DHT22;6994;49.752;6.094;2023-08-07T06:05:24;12.70;99.90
13848;DHT22;6994;49.752;6.094;2023-08-07T06:07:52;12.80;99.90
13848;DHT22;6994;49.752;6.094;2023-08-07T06:10:19;12.80;99.90
13848;DHT22;6994;49.752;6.094;2023-08-07T06:12:46;12.80;99.90
13848;DHT22;6994;49.752;6.094;2023-08-07T06:15:13;12.90;99.90
13848;DHT22;6994;49.752;6.094;2023-08-07T06:17:40;12.90;99.90
13848;DHT22;6994;49.752;6.094;2023-08-07T06:20:08;12.90;99.90
13848;DHT22;6994;49.752;6.094;2023-08-07T06:22:35;13.00;99.90
13848;DHT22;6994;49.752;6.094;2023-08-07T06:25:02;13.00;99.90
13848;DHT22;6994;49.752;6.094;2023-08-07T06:27:29;13.10;99.90
13848;DHT22;6994;49.752;6.094;2023-08-07T06:29:57;13.10;99.90
13848;DHT22;6994;49.752;6.094;2023-08-07T06:32:24;13.20;99.90
13848;DHT22;6994;49.752;6.094;2023-08-07T06:34:51;13.20;99.90
13848;DHT22;6994;49.752;6.094;2023-08-07T06:37:18;13.30;99.90
13848;DHT22;6994;49.752;6.094;2023-08-07T06:39:46;13.40;99.90
13848;DHT22;6994;49.752;6.094;2023-08-07T06:42:13;13.40;99.90
13848;DHT22;6994;49.752;6.094;2023-08-07T06:44:41;13.40;99.90
13848;DHT22;6994;49.752;6.094;2023-08-07T06:47:09;13.60;99.90
13848;DHT22;6994;49.752;6.094;2023-08-07T06:49:37;13.60;99.90
13848;DHT22;6994;49.752;6.094;2023-08-07T06:52:04;13.60;99.90
13848;DHT22;6994;49.752;6.094;2023-08-07T06:54:31;13.70;99.90
13848;DHT22;6994;49.752;6.094;2023-08-07T06:56:59;13.90;99.90
13848;DHT22;6994;49.752;6.094;2023-08-07T06:59:26;13.80;99.90
13848;DHT22;6994;49.752;6.094;2023-08-07T07:01:53;14.00;99.90
13848;DHT22;6994;49.752;6.094;2023-08-07T07:04:21;14.00;99.90
13848;DHT22;6994;49.752;6.094;2023-08-07T07:06:48;14.30;99.90
13848;DHT22;6994;49.752;6.094;2023-08-07T07:09:15;14.50;99.90
13848;DHT22;6994;49.752;6.094;2023-08-07T07:11:43;14.60;99.90
13848;DHT22;6994;49.752;6.094;2023-08-07T07:14:09;14.60;99.90
13848;DHT22;6994;49.752;6.094;2023-08-07T07:16:37;14.70;99.90
13848;DHT22;6994;49.752;6.094;2023-08-07T07:19:04;14.80;99.90
13848;DHT22;6994;49.752;6.094;2023-08-07T07:21:31;14.80;99.90
13848;DHT22;6994;49.752;6.094;2023-08-07T07:23:58;14.90;99.90
13848;DHT22;6994;49.752;6.094;2023-08-07T07:26:26;15.10;99.90
13848;DHT22;6994;49.752;6.094;2023-08-07T07:28:53;15.10;99.90
13848;DHT22;6994;49.752;6.094;2023-08-07T07:31:21;15.20;99.90
13848;DHT22;6994;49.752;6.094;2023-08-07T07:33:49;15.50;99.90
13848;DHT22;6994;49.752;6.094;2023-08-07T07:36:19;15.50;99.90
13848;DHT22;6994;49.752;6.094;2023-08-07T07:38:46;15.60;99.90
13848;DHT22;6994;49.752;6.094;2023-08-07T07:41:16;15.70;99.90
13848;DHT22;6994;49.752;6.094;2023-08-07T07:43:43;15.70;99.90
13848;DHT22;6994;49.752;6.094;2023-08-07T07:46:10;16.00;99.90
13848;DHT22;6994;49.752;6.094;2023-08-07T07:48:37;16.10;99.90
13848;DHT22;6994;49.752;6.094;2023-08-07T07:51:05;16.10;99.90
13848;DHT22;6994;49.752;6.094;2023-08-07T07:53:33;16.10;99.90
13848;DHT22;6994;49.752;6.094;2023-08-07T07:56:01;16.00;99.90
13848;DHT22;6994;49.752;6.094;2023-08-07T07:58:29;16.00;99.90
13848;DHT22;6994;49.752;6.094;2023-08-07T08:00:57;16.00;99.90
13848;DHT22;6994;49.752;6.094;2023-08-07T08:03:25;16.10;99.90
13848;DHT22;6994;49.752;6.094;2023-08-07T08:05:53;16.10;99.90
13848;DHT22;6994;49.752;6.094;2023-08-07T08:08:20;16.20;99.90
13848;DHT22;6994;49.752;6.094;2023-08-07T08:10:48;16.20;99.90
13848;DHT22;6994;49.752;6.094;2023-08-07T08:13:15;16.20;99.90
13848;DHT22;6994;49.752;6.094;2023-08-07T08:15:42;16.20;99.90
13848;DHT22;6994;49.752;6.094;2023-08-07T08:18:09;16.20;99.90
13848;DHT22;6994;49.752;6.094;2023-08-07T08:20:37;16.40;99.90
13848;DHT22;6994;49.752;6.094;2023-08-07T08:23:04;16.60;99.90
13848;DHT22;6994;49.752;6.094;2023-08-07T08:25:31;16.60;99.90
13848;DHT22;6994;49.752;6.094;2023-08-07T08:27:58;16.50;99.90
13848;DHT22;6994;49.752;6.094;2023-08-07T08:30:26;16.60;99.90
13848;DHT22;6994;49.752;6.094;2023-08-07T08:32:53;16.60;99.90
13848;DHT22;6994;49.752;6.094;2023-08-07T08:35:21;16.70;99.90
13848;DHT22;6994;49.752;6.094;2023-08-07T08:37:48;16.70;99.90
13848;DHT22;6994;49.752;6.094;2023-08-07T08:40:16;16.90;99.90
13848;DHT22;6994;49.752;6.094;2023-08-07T08:42:43;16.90;99.90
13848;DHT22;6994;49.752;6.094;2023-08-07T08:45:11;16.90;99.90
13848;DHT22;6994;49.752;6.094;2023-08-07T08:47:38;17.00;99.90
13848;DHT22;6994;49.752;6.094;2023-08-07T08:50:06;17.10;99.90
13848;DHT22;6994;49.752;6.094;2023-08-07T08:52:32;17.10;99.90
13848;DHT22;6994;49.752;6.094;2023-08-07T08:54:59;17.10;99.90
13848;DHT22;6994;49.752;6.094;2023-08-07T08:57:26;17.10;99.90
13848;DHT22;6994;49.752;6.094;2023-08-07T08:59:53;17.10;99.90
13848;DHT22;6994;49.752;6.094;2023-08-07T09:02:21;17.20;99.90
13848;DHT22;6994;49.752;6.094;2023-08-07T09:04:48;17.30;99.90
13848;DHT22;6994;49.752;6.094;2023-08-07T09:07:15;17.40;99.90
13848;DHT22;6994;49.752;6.094;2023-08-07T09:09:42;17.40;99.90
13848;DHT22;6994;49.752;6.094;2023-08-07T09:12:10;17.60;99.90
13848;DHT22;6994;49.752;6.094;2023-08-07T09:14:37;17.70;99.90
13848;DHT22;6994;49.752;6.094;2023-08-07T09:17:05;17.60;99.90
13848;DHT22;6994;49.752;6.094;2023-08-07T09:19:32;17.60;99.90
13848;DHT22;6994;49.752;6.094;2023-08-07T09:21:59;17.60;99.90
13848;DHT22;6994;49.752;6.094;2023-08-07T09:24:26;17.70;99.90
13848;DHT22;6994;49.752;6.094;2023-08-07T09:26:53;17.80;99.90
13848;DHT22;6994;49.752;6.094;2023-08-07T09:29:21;17.90;99.90
13848;DHT22;6994;49.752;6.094;2023-08-07T09:31:48;18.00;99.90
13848;DHT22;6994;49.752;6.094;2023-08-07T09:34:15;18.00;99.90
13848;DHT22;6994;49.752;6.094;2023-08-07T09:36:42;18.00;99.90
13848;DHT22;6994;49.752;6.094;2023-08-07T09:39:09;18.00;99.90
13848;DHT22;6994;49.752;6.094;2023-08-07T09:41:37;18.10;99.90
13848;DHT22;6994;49.752;6.094;2023-08-07T09:44:07;18.10;99.90
13848;DHT22;6994;49.752;6.094;2023-08-07T09:46:44;18.00;99.90
13848;DHT22;6994;49.752;6.094;2023-08-07T09:49:01;18.00;99.90
13848;DHT22;6994;49.752;6.094;2023-08-07T09:51:36;18.00;99.90
13848;DHT22;6994;49.752;6.094;2023-08-07T09:53:56;18.10;99.90
13848;DHT22;6994;49.752;6.094;2023-08-07T09:56:23;18.40;99.90
13848;DHT22;6994;49.752;6.094;2023-08-07T09:58:51;18.50;99.90
13848;DHT22;6994;49.752;6.094;2023-08-07T10:01:18;18.60;99.90
13848;DHT22;6994;49.752;6.094;2023-08-07T10:03:46;18.70;99.90
13848;DHT22;6994;49.752;6.094;2023-08-07T10:06:14;18.80;99.90
13848;DHT22;6994;49.752;6.094;2023-08-07T10:08:41;18.80;99.90
13848;DHT22;6994;49.752;6.094;2023-08-07T10:11:08;18.80;99.90
13848;DHT22;6994;49.752;6.094;2023-08-07T10:13:37;18.70;99.90
13848;DHT22;6994;49.752;6.094;2023-08-07T10:16:04;18.70;99.90
13848;DHT22;6994;49.752;6.094;2023-08-07T10:18:31;18.70;99.90
13848;DHT22;6994;49.752;6.094;2023-08-07T10:20:58;18.80;99.90
13848;DHT22;6994;49.752;6.094;2023-08-07T10:23:25;18.90;99.90
13848;DHT22;6994;49.752;6.094;2023-08-07T10:25:52;18.90;99.90
13848;DHT22;6994;49.752;6.094;2023-08-07T10:28:20;19.00;99.90
13848;DHT22;6994;49.752;6.094;2023-08-07T10:30:47;19.20;99.90
13848;DHT22;6994;49.752;6.094;2023-08-07T10:33:14;19.20;99.90
13848;DHT22;6994;49.752;6.094;2023-08-07T10:35:45;19.10;99.90
13848;DHT22;6994;49.752;6.094;2023-08-07T10:38:12;19.00;99.90
13848;DHT22;6994;49.752;6.094;2023-08-07T10:40:58;18.90;99.90
13848;DHT22;6994;49.752;6.094;2023-08-07T10:43:24;19.10;99.90
13848;DHT22;6994;49.752;6.094;2023-08-07T10:45:51;19.20;99.90
13848;DHT22;6994;49.752;6.094;2023-08-07T10:48:21;19.30;99.90
13848;DHT22;6994;49.752;6.094;2023-08-07T10:50:50;19.60;99.90
13848;DHT22;6994;49.752;6.094;2023-08-07T10:53:18;19.70;99.90
13848;DHT22;6994;49.752;6.094;2023-08-07T10:55:44;19.70;99.90
13848;DHT22;6994;49.752;6.094;2023-08-07T10:58:26;19.50;99.90
13848;DHT22;6994;49.752;6.094;2023-08-07T11:01:15;19.50;99.90
13848;DHT22;6994;49.752;6.094;2023-08-07T11:03:27;19.60;99.90
13848;DHT22;6994;49.752;6.094;2023-08-07T11:05:54;19.60;99.90
13848;DHT22;6994;49.752;6.094;2023-08-07T11:08:22;19.90;99.90
13848;DHT22;6994;49.752;6.094;2023-08-07T11:10:50;20.00;99.90
13848;DHT22;6994;49.752;6.094;2023-08-07T11:13:18;20.10;99.90
13848;DHT22;6994;49.752;6.094;2023-08-07T11:15:46;20.30;99.90
13848;DHT22;6994;49.752;6.094;2023-08-07T11:18:14;20.50;99.90
13848;DHT22;6994;49.752;6.094;2023-08-07T11:20:42;20.70;99.90
13848;DHT22;6994;49.752;6.094;2023-08-07T11:23:09;20.70;99.90
13848;DHT22;6994;49.752;6.094;2023-08-07T11:25:36;20.90;99.30
13848;DHT22;6994;49.752;6.094;2023-08-07T11:28:03;21.00;99.80
13848;DHT22;6994;49.752;6.094;2023-08-07T11:30:30;21.30;98.70
13848;DHT22;6994;49.752;6.094;2023-08-07T11:32:58;21.50;98.10
13848;DHT22;6994;49.752;6.094;2023-08-07T11:35:25;21.50;98.50
13848;DHT22;6994;49.752;6.094;2023-08-07T11:37:52;21.30;97.70
13848;DHT22;6994;49.752;6.094;2023-08-07T11:40:19;21.40;98.00
13848;DHT22;6994;49.752;6.094;2023-08-07T11:42:46;21.70;98.00
13848;DHT22;6994;49.752;6.094;2023-08-07T11:45:14;22.50;96.10
13848;DHT22;6994;49.752;6.094;2023-08-07T11:47:42;22.70;95.90
13848;DHT22;6994;49.752;6.094;2023-08-07T11:50:10;22.70;95.90
13848;DHT22;6994;49.752;6.094;2023-08-07T11:52:37;23.20;96.60
13848;DHT22;6994;49.752;6.094;2023-08-07T11:55:04;24.00;95.40
13848;DHT22;6994;49.752;6.094;2023-08-07T11:57:31;24.70;93.90
13848;DHT22;6994;49.752;6.094;2023-08-07T11:59:59;25.00;92.90
13848;DHT22;6994;49.752;6.094;2023-08-07T12:02:26;24.60;91.60
13848;DHT22;6994;49.752;6.094;2023-08-07T12:04:57;24.00;91.80
13848;DHT22;6994;49.752;6.094;2023-08-07T12:07:20;23.40;93.00
13848;DHT22;6994;49.752;6.094;2023-08-07T12:09:47;23.20;94.50
13848;DHT22;6994;49.752;6.094;2023-08-07T12:12:15;24.10;92.60
13848;DHT22;6994;49.752;6.094;2023-08-07T12:14:42;24.30;92.70
13848;DHT22;6994;49.752;6.094;2023-08-07T12:17:09;24.20;91.10
13848;DHT22;6994;49.752;6.094;2023-08-07T12:19:37;24.10;91.80
13848;DHT22;6994;49.752;6.094;2023-08-07T12:22:08;23.80;92.00
13848;DHT22;6994;49.752;6.094;2023-08-07T12:24:31;23.80;92.00
13848;DHT22;6994;49.752;6.094;2023-08-07T12:26:59;23.80;92.70
13848;DHT22;6994;49.752;6.094;2023-08-07T12:29:26;24.30;93.40
13848;DHT22;6994;49.752;6.094;2023-08-07T12:31:53;24.80;91.70
13848;DHT22;6994;49.752;6.094;2023-08-07T12:34:20;25.70;90.30
13848;DHT22;6994;49.752;6.094;2023-08-07T12:36:47;25.70;90.30
13848;DHT22;6994;49.752;6.094;2023-08-07T12:39:15;25.90;90.00
13848;DHT22;6994;49.752;6.094;2023-08-07T12:41:42;26.50;87.70
13848;DHT22;6994;49.752;6.094;2023-08-07T12:44:09;27.40;85.20
13848;DHT22;6994;49.752;6.094;2023-08-07T12:46:36;27.40;81.90
13848;DHT22;6994;49.752;6.094;2023-08-07T12:49:03;27.30;82.20
13848;DHT22;6994;49.752;6.094;2023-08-07T12:51:31;27.50;82.80
13848;DHT22;6994;49.752;6.094;2023-08-07T12:53:59;27.80;78.30
13848;DHT22;6994;49.752;6.094;2023-08-07T12:56:27;27.90;77.90
13848;DHT22;6994;49.752;6.094;2023-08-07T12:58:54;27.80;77.80
13848;DHT22;6994;49.752;6.094;2023-08-07T13:01:21;27.70;77.60
13848;DHT22;6994;49.752;6.094;2023-08-07T13:03:48;27.60;77.80
13848;DHT22;6994;49.752;6.094;2023-08-07T13:06:15;27.50;76.90
13848;DHT22;6994;49.752;6.094;2023-08-07T13:08:43;27.50;78.00
13848;DHT22;6994;49.752;6.094;2023-08-07T13:11:10;27.80;79.20
13848;DHT22;6994;49.752;6.094;2023-08-07T13:13:37;28.40;75.60
13848;DHT22;6994;49.752;6.094;2023-08-07T13:16:04;29.60;75.60
13848;DHT22;6994;49.752;6.094;2023-08-07T13:18:31;30.10;70.70
13848;DHT22;6994;49.752;6.094;2023-08-07T13:20:59;29.40;68.20
13848;DHT22;6994;49.752;6.094;2023-08-07T13:23:27;28.50;70.00
13848;DHT22;6994;49.752;6.094;2023-08-07T13:25:55;28.50;69.90
13848;DHT22;6994;49.752;6.094;2023-08-07T13:28:22;28.10;70.50
13848;DHT22;6994;49.752;6.094;2023-08-07T13:30:49;28.00;72.00
13848;DHT22;6994;49.752;6.094;2023-08-07T13:33:16;28.30;73.40
13848;DHT22;6994;49.752;6.094;2023-08-07T13:35:44;28.90;72.10
13848;DHT22;6994;49.752;6.094;2023-08-07T13:38:12;29.20;70.90
13848;DHT22;6994;49.752;6.094;2023-08-07T13:40:40;29.20;70.80
13848;DHT22;6994;49.752;6.094;2023-08-07T13:43:07;29.60;69.80
13848;DHT22;6994;49.752;6.094;2023-08-07T13:45:34;29.80;67.80
13848;DHT22;6994;49.752;6.094;2023-08-07T13:48:01;30.10;64.40
13848;DHT22;6994;49.752;6.094;2023-08-07T13:50:28;29.30;64.30
13848;DHT22;6994;49.752;6.094;2023-08-07T13:52:56;28.60;65.80
13848;DHT22;6994;49.752;6.094;2023-08-07T13:55:23;28.10;67.70
13848;DHT22;6994;49.752;6.094;2023-08-07T13:57:50;28.10;68.20
13848;DHT22;6994;49.752;6.094;2023-08-07T14:00:17;28.40;70.00
13848;DHT22;6994;49.752;6.094;2023-08-07T14:02:45;29.40;69.20
13848;DHT22;6994;49.752;6.094;2023-08-07T14:05:13;29.10;70.00
13848;DHT22;6994;49.752;6.094;2023-08-07T14:07:41;28.40;69.80
13848;DHT22;6994;49.752;6.094;2023-08-07T14:10:09;28.10;71.10
13848;DHT22;6994;49.752;6.094;2023-08-07T14:12:36;28.10;71.00
13848;DHT22;6994;49.752;6.094;2023-08-07T14:15:04;28.50;70.50
13848;DHT22;6994;49.752;6.094;2023-08-07T14:17:31;28.80;72.20
13848;DHT22;6994;49.752;6.094;2023-08-07T14:19:58;29.00;71.70
13848;DHT22;6994;49.752;6.094;2023-08-07T14:22:25;29.30;70.70
13848;DHT22;6994;49.752;6.094;2023-08-07T14:24:52;29.60;70.90
13848;DHT22;6994;49.752;6.094;2023-08-07T14:27:20;29.90;69.10
13848;DHT22;6994;49.752;6.094;2023-08-07T14:29:47;30.10;69.40
13848;DHT22;6994;49.752;6.094;2023-08-07T14:32:14;30.30;69.90
13848;DHT22;6994;49.752;6.094;2023-08-07T14:34:41;30.40;68.10
13848;DHT22;6994;49.752;6.094;2023-08-07T14:37:08;30.40;68.30
13848;DHT22;6994;49.752;6.094;2023-08-07T14:39:36;30.20;70.00
13848;DHT22;6994;49.752;6.094;2023-08-07T14:42:03;30.00;70.60
13848;DHT22;6994;49.752;6.094;2023-08-07T14:44:30;29.80;69.00
13848;DHT22;6994;49.752;6.094;2023-08-07T14:46:57;30.10;67.70
13848;DHT22;6994;49.752;6.094;2023-08-07T14:49:24;29.70;67.40
13848;DHT22;6994;49.752;6.094;2023-08-07T14:51:52;29.30;68.20
13848;DHT22;6994;49.752;6.094;2023-08-07T14:54:19;29.10;69.80
13848;DHT22;6994;49.752;6.094;2023-08-07T14:56:46;28.90;70.80
13848;DHT22;6994;49.752;6.094;2023-08-07T14:59:13;28.60;71.60
13848;DHT22;6994;49.752;6.094;2023-08-07T15:01:40;28.00;71.20
13848;DHT22;6994;49.752;6.094;2023-08-07T15:04:08;27.80;73.20
13848;DHT22;6994;49.752;6.094;2023-08-07T15:06:35;27.00;75.60
13848;DHT22;6994;49.752;6.094;2023-08-07T15:09:02;26.70;77.80
13848;DHT22;6994;49.752;6.094;2023-08-07T15:11:29;26.80;78.00
13848;DHT22;6994;49.752;6.094;2023-08-07T15:13:57;26.10;77.30
13848;DHT22;6994;49.752;6.094;2023-08-07T15:16:24;26.10;77.30
13848;DHT22;6994;49.752;6.094;2023-08-07T15:18:52;25.40;77.70
13848;DHT22;6994;49.752;6.094;2023-08-07T15:21:19;24.60;78.60
13848;DHT22;6994;49.752;6.094;2023-08-07T15:23:46;24.20;79.90
13848;DHT22;6994;49.752;6.094;2023-08-07T15:26:13;23.50;82.10
13848;DHT22;6994;49.752;6.094;2023-08-07T15:28:40;23.00;84.60
13848;DHT22;6994;49.752;6.094;2023-08-07T15:31:08;22.60;87.00
13848;DHT22;6994;49.752;6.094;2023-08-07T15:33:35;22.50;87.80
13848;DHT22;6994;49.752;6.094;2023-08-07T15:36:02;22.40;87.30
13848;DHT22;6994;49.752;6.094;2023-08-07T15:38:29;22.30;88.80
13848;DHT22;6994;49.752;6.094;2023-08-07T15:40:57;22.50;90.00
13848;DHT22;6994;49.752;6.094;2023-08-07T15:43:24;22.70;89.70
13848;DHT22;6994;49.752;6.094;2023-08-07T15:45:51;22.80;90.10
13848;DHT22;6994;49.752;6.094;2023-08-07T15:48:21;23.10;89.30
13848;DHT22;6994;49.752;6.094;2023-08-07T15:50:49;23.20;88.40